createdAt,value
2023-03-28T00:00:15.083Z,100.00
2023-03-28T00:01:13.030Z,100.00
2023-03-28T00:02:13.003Z,100.00
2023-03-28T00:03:13.152Z,100.00
2023-03-28T00:04:13.302Z,100.00
2023-03-28T00:05:13.598Z,100.00
2023-03-28T00:06:13.696Z,100.00
2023-03-28T00:07:12.963Z,100.00
2023-03-28T00:08:16.947Z,100.00
2023-03-28T00:09:12.891Z,100.00
2023-03-28T00:10:12.780Z,100.00
2023-03-28T00:11:13.781Z,100.00
2023-03-28T00:12:13.743Z,100.00
2023-03-28T00:13:13.907Z,100.00
2023-03-28T00:14:12.937Z,100.00
2023-03-28T00:15:12.901Z,100.00
2023-03-28T00:16:13.333Z,100.00
2023-03-28T00:17:13.327Z,100.00
2023-03-28T00:18:13.341Z,100.00
2023-03-28T00:19:13.224Z,100.00
2023-03-28T00:20:13.250Z,100.00
2023-03-28T00:21:13.248Z,100.00
2023-03-28T00:22:13.345Z,100.00
2023-03-28T00:23:13.257Z,100.00
2023-03-28T00:24:13.359Z,100.00
2023-03-28T00:25:13.574Z,100.00
2023-03-28T00:26:13.708Z,100.00
2023-03-28T00:27:13.976Z,100.00
2023-03-28T00:28:13.113Z,100.00
2023-03-28T00:29:13.499Z,100.00
2023-03-28T00:30:13.436Z,100.00
2023-03-28T00:31:14.105Z,100.00
2023-03-28T00:32:13.920Z,100.00
2023-03-28T00:33:12.996Z,100.00
2023-03-28T00:34:12.943Z,100.00
2023-03-28T00:35:12.787Z,100.00
2023-03-28T00:36:13.667Z,100.00
2023-03-28T00:37:13.583Z,100.00
2023-03-28T00:38:13.857Z,100.00
2023-03-28T00:39:12.850Z,100.00
2023-03-28T00:40:13.763Z,100.00
2023-03-28T00:41:14.001Z,100.00
2023-03-28T00:42:12.894Z,100.00
2023-03-28T00:43:14.063Z,100.00
2023-03-28T00:44:12.977Z,100.00
2023-03-28T00:45:13.160Z,100.00
2023-03-28T00:46:13.239Z,100.00
2023-03-28T00:47:13.417Z,100.00
2023-03-28T00:48:14.571Z,100.00
2023-03-28T00:49:13.633Z,100.00
2023-03-28T00:50:13.784Z,100.00
2023-03-28T00:51:13.892Z,100.00
2023-03-28T00:52:13.160Z,100.00
2023-03-28T00:53:22.499Z,100.00
2023-03-28T00:54:13.953Z,100.00
2023-03-28T00:55:12.852Z,100.00
2023-03-28T00:56:13.912Z,100.00
2023-03-28T00:57:13.242Z,100.00
2023-03-28T00:58:13.590Z,100.00
2023-03-28T00:59:13.745Z,100.00
2023-03-28T01:00:13.650Z,100.00
2023-03-28T01:01:13.626Z,100.00
2023-03-28T01:02:13.711Z,100.00
2023-03-28T01:03:13.884Z,100.00
2023-03-28T01:04:12.831Z,100.00
2023-03-28T01:05:14.044Z,100.00
2023-03-28T01:06:13.017Z,100.00
2023-03-28T01:07:12.959Z,100.00
2023-03-28T01:08:13.237Z,100.00
2023-03-28T01:09:13.197Z,100.00
2023-03-28T01:10:13.170Z,100.00
2023-03-28T01:11:13.487Z,100.00
2023-03-28T01:12:13.435Z,100.00
2023-03-28T01:13:13.633Z,100.00
2023-03-28T01:14:13.639Z,100.00
2023-03-28T01:15:13.664Z,100.00
2023-03-28T01:16:14.188Z,100.00
2023-03-28T01:17:13.194Z,100.00
2023-03-28T01:18:13.198Z,100.00
2023-03-28T01:19:13.471Z,100.00
2023-03-28T01:20:13.518Z,100.00
2023-03-28T01:21:13.515Z,100.00
2023-03-28T01:22:13.548Z,100.00
2023-03-28T01:23:13.803Z,100.00
2023-03-28T01:24:14.006Z,100.00
2023-03-28T01:25:12.911Z,100.00
2023-03-28T01:26:12.812Z,100.00
2023-03-28T01:27:14.140Z,100.00
2023-03-28T01:28:13.437Z,100.00
2023-03-28T01:29:13.613Z,100.00
2023-03-28T01:30:13.731Z,100.00
2023-03-28T01:31:14.034Z,100.00
2023-03-28T01:32:12.935Z,100.00
2023-03-28T01:33:13.480Z,100.00
2023-03-28T01:34:13.415Z,100.00
2023-03-28T01:35:13.733Z,100.00
2023-03-28T01:36:13.627Z,100.00
2023-03-28T01:37:13.726Z,100.00
2023-03-28T01:38:13.797Z,100.00
2023-03-28T01:39:13.885Z,100.00
2023-03-28T01:40:12.696Z,100.00
2023-03-28T01:41:13.574Z,100.00
2023-03-28T01:42:13.537Z,100.00
2023-03-28T01:43:13.628Z,100.00
2023-03-28T01:44:13.798Z,100.00
2023-03-28T01:45:13.662Z,100.00
2023-03-28T01:46:14.120Z,100.00
2023-03-28T01:47:13.079Z,100.00
2023-03-28T01:48:13.101Z,100.00
2023-03-28T01:49:13.075Z,100.00
2023-03-28T01:50:13.159Z,100.00
2023-03-28T01:51:13.210Z,100.00
2023-03-28T01:52:13.269Z,100.00
2023-03-28T01:53:13.188Z,100.00
2023-03-28T01:54:13.405Z,100.00
2023-03-28T01:55:13.311Z,100.00
2023-03-28T01:56:13.250Z,100.00
2023-03-28T01:57:13.314Z,100.00
2023-03-28T01:58:13.443Z,100.00
2023-03-28T01:59:13.600Z,100.00
2023-03-28T02:00:13.894Z,100.00
2023-03-28T02:01:12.852Z,100.00
2023-03-28T02:02:13.014Z,100.00
2023-03-28T02:03:13.006Z,100.00
2023-03-28T02:04:20.643Z,100.00
2023-03-28T02:05:15.621Z,100.00
2023-03-28T02:06:13.983Z,100.00
2023-03-28T02:07:12.813Z,100.00
2023-03-28T02:08:13.730Z,100.00
2023-03-28T02:09:13.593Z,100.00
2023-03-28T02:10:13.497Z,100.00
2023-03-28T02:11:13.523Z,100.00
2023-03-28T02:12:14.108Z,100.00
2023-03-28T02:13:13.068Z,100.00
2023-03-28T02:14:13.155Z,100.00
2023-03-28T02:15:13.418Z,100.00
2023-03-28T02:16:13.731Z,100.00
2023-03-28T02:17:13.875Z,100.00
2023-03-28T02:18:13.741Z,100.00
2023-03-28T02:19:13.789Z,100.00
2023-03-28T02:20:13.697Z,100.00
2023-03-28T02:21:13.652Z,100.00
2023-03-28T02:22:13.564Z,100.00
2023-03-28T02:23:13.410Z,100.00
2023-03-28T02:24:13.398Z,100.00
2023-03-28T02:25:13.674Z,100.00
2023-03-28T02:26:13.621Z,100.00
2023-03-28T02:27:13.564Z,100.00
2023-03-28T02:28:13.531Z,100.00
2023-03-28T02:29:13.466Z,100.00
2023-03-28T02:30:13.442Z,100.00
2023-03-28T02:31:13.362Z,100.00
2023-03-28T02:32:13.495Z,100.00
2023-03-28T02:33:13.644Z,100.00
2023-03-28T02:34:13.470Z,100.00
2023-03-28T02:35:13.374Z,100.00
2023-03-28T02:36:13.695Z,100.00
2023-03-28T02:37:13.698Z,100.00
2023-03-28T02:38:14.198Z,100.00
2023-03-28T02:39:13.512Z,100.00
2023-03-28T02:40:13.342Z,100.00
2023-03-28T02:41:13.647Z,100.00
2023-03-28T02:42:13.775Z,100.00
2023-03-28T02:43:13.941Z,100.00
2023-03-28T02:44:12.965Z,100.00
2023-03-28T02:45:13.024Z,100.00
2023-03-28T02:46:12.973Z,100.00
2023-03-28T02:47:12.904Z,100.00
2023-03-28T02:48:13.229Z,100.00
2023-03-28T02:49:13.322Z,100.00
2023-03-28T02:50:13.253Z,100.00
2023-03-28T02:51:13.141Z,100.00
2023-03-28T02:52:13.006Z,100.00
2023-03-28T02:53:12.904Z,100.00
2023-03-28T02:54:13.986Z,100.00
2023-03-28T02:55:12.987Z,100.00
2023-03-28T02:56:13.080Z,100.00
2023-03-28T02:57:13.192Z,100.00
2023-03-28T02:58:13.267Z,100.00
2023-03-28T02:59:13.195Z,100.00
2023-03-28T03:00:13.307Z,100.00
2023-03-28T03:01:13.356Z,100.00
2023-03-28T03:02:13.337Z,100.00
2023-03-28T03:03:13.256Z,100.00
2023-03-28T03:04:13.285Z,100.00
2023-03-28T03:05:13.319Z,100.00
2023-03-28T03:06:13.362Z,100.00
2023-03-28T03:07:13.821Z,100.00
2023-03-28T03:08:13.920Z,100.00
2023-03-28T03:09:13.116Z,100.00
2023-03-28T03:10:13.135Z,100.00
2023-03-28T03:11:13.008Z,100.00
2023-03-28T03:12:13.589Z,100.00
2023-03-28T03:13:13.616Z,100.00
2023-03-28T03:14:13.563Z,100.00
2023-03-28T03:15:13.557Z,100.00
2023-03-28T03:16:13.947Z,100.00
2023-03-28T03:17:13.077Z,100.00
2023-03-28T03:18:13.070Z,100.00
2023-03-28T03:19:12.958Z,100.00
2023-03-28T03:20:13.231Z,100.00
2023-03-28T03:21:13.267Z,100.00
2023-03-28T03:22:21.085Z,100.00
2023-03-28T03:23:13.373Z,100.00
2023-03-28T03:24:13.363Z,100.00
2023-03-28T03:25:14.484Z,100.00
2023-03-28T03:26:13.781Z,100.00
2023-03-28T03:27:13.720Z,100.00
2023-03-28T03:28:13.606Z,100.00
2023-03-28T03:29:13.519Z,100.00
2023-03-28T03:30:13.498Z,100.00
2023-03-28T03:31:13.991Z,100.00
2023-03-28T03:32:12.924Z,100.00
2023-03-28T03:33:16.956Z,100.00
2023-03-28T03:34:13.652Z,100.00
2023-03-28T03:35:13.691Z,100.00
2023-03-28T03:36:13.610Z,100.00
2023-03-28T03:37:13.886Z,100.00
2023-03-28T03:38:13.119Z,100.00
2023-03-28T03:39:13.073Z,100.00
2023-03-28T03:40:12.950Z,100.00
2023-03-28T03:41:12.846Z,100.00
2023-03-28T03:42:13.680Z,100.00
2023-03-28T03:43:13.749Z,100.00
2023-03-28T03:44:14.006Z,100.00
2023-03-28T03:45:12.905Z,100.00
2023-03-28T03:46:12.931Z,100.00
2023-03-28T03:47:13.820Z,100.00
2023-03-28T03:48:14.912Z,100.00
2023-03-28T03:49:12.829Z,100.00
2023-03-28T03:50:14.611Z,100.00
2023-03-28T03:51:13.597Z,100.00
2023-03-28T03:52:13.568Z,100.00
2023-03-28T03:53:13.665Z,100.00
2023-03-28T03:54:13.561Z,100.00
2023-03-28T03:55:13.429Z,100.00
2023-03-28T03:56:13.685Z,100.00
2023-03-28T03:57:13.564Z,100.00
2023-03-28T03:58:13.752Z,100.00
2023-03-28T03:59:13.877Z,100.00
2023-03-28T04:00:13.783Z,100.00
2023-03-28T04:01:14.125Z,100.00
2023-03-28T04:02:13.032Z,100.00
2023-03-28T04:03:24.187Z,100.00
2023-03-28T04:04:13.327Z,100.00
2023-03-28T04:05:13.414Z,100.00
2023-03-28T04:06:13.314Z,100.00
2023-03-28T04:07:13.254Z,100.00
2023-03-28T04:08:13.158Z,100.00
2023-03-28T04:09:13.052Z,100.00
2023-03-28T04:10:13.069Z,100.00
2023-03-28T04:11:13.197Z,100.00
2023-03-28T04:12:13.312Z,100.00
2023-03-28T04:13:13.460Z,100.00
2023-03-28T04:14:13.392Z,100.00
2023-03-28T04:15:13.419Z,100.00
2023-03-28T04:16:13.434Z,100.00
2023-03-28T04:17:13.322Z,100.00
2023-03-28T04:18:13.155Z,100.00
2023-03-28T04:19:13.238Z,100.00
2023-03-28T04:20:13.209Z,100.00
2023-03-28T04:21:13.288Z,100.00
2023-03-28T04:22:13.227Z,100.00
2023-03-28T04:23:13.258Z,100.00
2023-03-28T04:24:13.250Z,100.00
2023-03-28T04:25:13.439Z,100.00
2023-03-28T04:26:13.539Z,100.00
2023-03-28T04:27:13.554Z,100.00
2023-03-28T04:28:13.515Z,100.00
2023-03-28T04:29:13.780Z,100.00
2023-03-28T04:30:13.826Z,100.00
2023-03-28T04:31:13.774Z,100.00
2023-03-28T04:32:13.776Z,100.00
2023-03-28T04:33:13.734Z,100.00
2023-03-28T04:34:13.619Z,100.00
2023-03-28T04:35:13.902Z,100.00
2023-03-28T04:36:12.806Z,100.00
2023-03-28T04:37:13.713Z,100.00
2023-03-28T04:38:20.848Z,100.00
2023-03-28T04:39:13.774Z,100.00
2023-03-28T04:40:13.570Z,100.00
2023-03-28T04:41:13.717Z,100.00
2023-03-28T04:42:13.643Z,100.00
2023-03-28T04:43:13.470Z,100.00
2023-03-28T04:44:13.407Z,100.00
2023-03-28T04:45:15.742Z,100.00
2023-03-28T04:46:50.068Z,100.00
2023-03-28T04:47:14.030Z,100.00
2023-03-28T04:48:12.860Z,100.00
2023-03-28T04:49:13.682Z,100.00
2023-03-28T04:50:13.704Z,100.00
2023-03-28T04:51:13.787Z,100.00
2023-03-28T04:52:14.106Z,100.00
2023-03-28T04:53:13.364Z,100.00
2023-03-28T04:54:13.155Z,100.00
2023-03-28T04:55:13.137Z,100.00
2023-03-28T04:56:13.290Z,100.00
2023-03-28T04:57:13.527Z,100.00
2023-03-28T04:58:13.580Z,100.00
2023-03-28T04:59:13.656Z,100.00
2023-03-28T05:00:13.572Z,100.00
2023-03-28T05:01:13.822Z,100.00
2023-03-28T05:02:12.919Z,100.00
2023-03-28T05:03:13.287Z,100.00
2023-03-28T05:04:13.445Z,100.00
2023-03-28T05:05:13.360Z,100.00
2023-03-28T05:06:13.571Z,100.00
2023-03-28T05:07:13.452Z,100.00
2023-03-28T05:08:13.393Z,100.00
2023-03-28T05:09:13.224Z,100.00
2023-03-28T05:10:14.217Z,100.00
2023-03-28T05:11:13.327Z,100.00
2023-03-28T05:12:13.146Z,100.00
2023-03-28T05:13:13.203Z,100.00
2023-03-28T05:14:13.189Z,100.00
2023-03-28T05:15:23.082Z,100.00
2023-03-28T05:16:13.460Z,100.00
2023-03-28T05:17:13.530Z,100.00
2023-03-28T05:18:13.565Z,100.00
2023-03-28T05:19:13.819Z,100.00
2023-03-28T05:20:14.063Z,100.00
2023-03-28T05:21:12.939Z,100.00
2023-03-28T05:22:13.161Z,100.00
2023-03-28T05:23:13.599Z,100.00
2023-03-28T05:24:13.584Z,100.00
2023-03-28T05:25:13.720Z,100.00
2023-03-28T05:26:13.823Z,100.00
2023-03-28T05:27:13.767Z,100.00
2023-03-28T05:28:13.761Z,100.00
2023-03-28T05:29:14.019Z,100.00
2023-03-28T05:30:13.163Z,100.00
2023-03-28T05:31:13.089Z,100.00
2023-03-28T05:32:13.135Z,100.00
2023-03-28T05:33:18.383Z,100.00
2023-03-28T05:34:13.848Z,100.00
2023-03-28T05:35:13.960Z,100.00
2023-03-28T05:36:13.024Z,100.00
2023-03-28T05:37:13.006Z,100.00
2023-03-28T05:38:13.415Z,100.00
2023-03-28T05:39:13.363Z,100.00
2023-03-28T05:40:13.755Z,100.00
2023-03-28T05:41:14.115Z,100.00
2023-03-28T05:42:13.103Z,100.00
2023-03-28T05:43:13.410Z,100.00
2023-03-28T05:44:13.416Z,100.00
2023-03-28T05:45:13.283Z,100.00
2023-03-28T05:46:13.361Z,100.00
2023-03-28T05:47:13.560Z,100.00
2023-03-28T05:48:13.617Z,100.00
2023-03-28T05:49:13.539Z,100.00
2023-03-28T05:50:13.751Z,100.00
2023-03-28T05:51:13.688Z,100.00
2023-03-28T05:52:13.781Z,100.00
2023-03-28T05:53:13.695Z,100.00
2023-03-28T05:54:14.195Z,100.00
2023-03-28T05:55:13.120Z,100.00
2023-03-28T05:56:13.047Z,100.00
2023-03-28T05:57:13.320Z,100.00
2023-03-28T05:58:13.615Z,100.00
2023-03-28T05:59:13.438Z,100.00
2023-03-28T06:00:13.289Z,100.00
2023-03-28T06:01:13.225Z,100.00
2023-03-28T06:02:13.182Z,100.00
2023-03-28T06:03:16.788Z,100.00
2023-03-28T06:04:13.539Z,100.00
2023-03-28T06:05:13.660Z,100.00
2023-03-28T06:06:13.756Z,100.00
2023-03-28T06:07:13.786Z,100.00
2023-03-28T06:08:13.774Z,100.00
2023-03-28T06:09:13.698Z,100.00
2023-03-28T06:10:13.902Z,100.00
2023-03-28T06:11:12.730Z,100.00
2023-03-28T06:12:14.018Z,100.00
2023-03-28T06:13:13.222Z,100.00
2023-03-28T06:14:13.100Z,100.00
2023-03-28T06:15:12.935Z,100.00
2023-03-28T06:16:13.078Z,100.00
2023-03-28T06:17:13.127Z,100.00
2023-03-28T06:18:13.423Z,100.00
2023-03-28T06:19:18.285Z,100.00
2023-03-28T06:20:14.140Z,100.00
2023-03-28T06:21:13.775Z,100.00
2023-03-28T06:22:13.959Z,100.00
2023-03-28T06:23:12.827Z,100.00
2023-03-28T06:24:13.656Z,100.00
2023-03-28T06:25:13.814Z,100.00
2023-03-28T06:26:13.828Z,100.00
2023-03-28T06:27:13.787Z,100.00
2023-03-28T06:28:14.017Z,100.00
2023-03-28T06:29:13.149Z,100.00
2023-03-28T06:30:13.125Z,100.00
2023-03-28T06:31:13.141Z,100.00
2023-03-28T06:32:13.288Z,100.00
2023-03-28T06:33:14.469Z,100.00
2023-03-28T06:34:13.777Z,100.00
2023-03-28T06:35:13.846Z,100.00
2023-03-28T06:36:13.731Z,100.00
2023-03-28T06:37:13.981Z,100.00
2023-03-28T06:38:12.981Z,100.00
2023-03-28T06:39:12.905Z,100.00
2023-03-28T06:40:12.763Z,100.00
2023-03-28T06:41:14.069Z,100.00
2023-03-28T06:42:13.042Z,100.00
2023-03-28T06:43:13.061Z,100.00
2023-03-28T06:44:13.346Z,100.00
2023-03-28T06:45:13.460Z,100.00
2023-03-28T06:46:13.842Z,100.00
2023-03-28T06:47:17.749Z,100.00
2023-03-28T06:48:14.124Z,100.00
2023-03-28T06:49:13.368Z,100.00
2023-03-28T06:50:13.676Z,100.00
2023-03-28T06:51:13.770Z,100.00
2023-03-28T06:52:13.683Z,100.00
2023-03-28T06:53:15.294Z,100.00
2023-03-28T06:54:13.423Z,100.00
2023-03-28T06:55:13.401Z,100.00
2023-03-28T06:56:13.507Z,100.00
2023-03-28T06:57:13.742Z,100.00
2023-03-28T06:58:13.594Z,100.00
2023-03-28T06:59:13.708Z,100.00
2023-03-28T07:00:13.967Z,100.00
2023-03-28T07:01:12.988Z,100.00
2023-03-28T07:02:13.003Z,100.00
2023-03-28T07:03:13.058Z,100.00
2023-03-28T07:04:13.171Z,100.00
2023-03-28T07:05:13.211Z,100.00
2023-03-28T07:06:13.185Z,100.00
2023-03-28T07:07:13.219Z,100.00
2023-03-28T07:08:13.195Z,100.00
2023-03-28T07:09:13.300Z,100.00
2023-03-28T07:10:13.259Z,100.00
2023-03-28T07:11:13.452Z,100.00
2023-03-28T07:12:13.329Z,100.00
2023-03-28T07:13:13.173Z,100.00
2023-03-28T07:14:12.992Z,100.00
2023-03-28T07:15:12.918Z,100.00
2023-03-28T07:16:12.919Z,100.00
2023-03-28T07:17:12.958Z,100.00
2023-03-28T07:18:13.192Z,100.00
2023-03-28T07:19:13.221Z,100.00
2023-03-28T07:20:13.230Z,100.00
2023-03-28T07:21:13.250Z,100.00
2023-03-28T07:22:13.651Z,100.00
2023-03-28T07:23:13.538Z,100.00
2023-03-28T07:24:13.452Z,100.00
2023-03-28T07:25:13.589Z,100.00
2023-03-28T07:26:13.578Z,100.00
2023-03-28T07:27:15.981Z,100.00
2023-03-28T07:28:14.236Z,100.00
2023-03-28T07:29:13.246Z,100.00
2023-03-28T07:30:13.311Z,100.00
2023-03-28T07:31:13.493Z,100.00
2023-03-28T07:32:13.390Z,100.00
2023-03-28T07:33:18.921Z,100.00
2023-03-28T07:34:13.505Z,100.00
2023-03-28T07:35:13.660Z,100.00
2023-03-28T07:36:13.751Z,100.00
2023-03-28T07:37:14.107Z,100.00
2023-03-28T07:38:13.127Z,100.00
2023-03-28T07:39:13.073Z,100.00
2023-03-28T07:40:13.217Z,100.00
2023-03-28T07:41:13.447Z,100.00
2023-03-28T07:42:13.361Z,100.00
2023-03-28T07:43:13.561Z,100.00
2023-03-28T07:44:13.437Z,100.00
2023-03-28T07:45:13.477Z,100.00
2023-03-28T07:46:13.768Z,100.00
2023-03-28T07:47:14.013Z,100.00
2023-03-28T07:48:12.974Z,100.00
2023-03-28T07:49:12.901Z,100.00
2023-03-28T07:50:12.783Z,100.00
2023-03-28T07:51:13.606Z,100.00
2023-03-28T07:52:13.543Z,100.00
2023-03-28T07:53:13.469Z,100.00
2023-03-28T07:54:13.512Z,100.00
2023-03-28T07:55:13.535Z,100.00
2023-03-28T07:56:13.472Z,100.00
2023-03-28T07:57:13.614Z,100.00
2023-03-28T07:58:14.990Z,100.00
2023-03-28T07:59:12.875Z,100.00
2023-03-28T08:00:13.911Z,100.00
2023-03-28T08:01:13.078Z,100.00
2023-03-28T08:02:13.199Z,100.00
2023-03-28T08:03:13.270Z,100.00
2023-03-28T08:04:13.585Z,100.00
2023-03-28T08:05:13.955Z,100.00
2023-03-28T08:06:28.554Z,100.00
2023-03-28T08:07:13.594Z,100.00
2023-03-28T08:08:13.493Z,100.00
2023-03-28T08:09:13.606Z,100.00
2023-03-28T08:10:13.498Z,100.00
2023-03-28T08:11:13.514Z,100.00
2023-03-28T08:12:13.687Z,100.00
2023-03-28T08:13:13.860Z,100.00
2023-03-28T08:14:13.977Z,100.00
2023-03-28T08:15:12.958Z,100.00
2023-03-28T08:16:12.904Z,100.00
2023-03-28T08:17:13.313Z,100.00
2023-03-28T08:18:13.429Z,100.00
2023-03-28T08:19:13.338Z,100.00
2023-03-28T08:20:13.251Z,100.00
2023-03-28T08:21:13.272Z,100.00
2023-03-28T08:22:13.214Z,100.00
2023-03-28T08:23:13.390Z,100.00
2023-03-28T08:24:19.484Z,100.00
2023-03-28T08:25:13.768Z,100.00
2023-03-28T08:26:13.710Z,100.00
2023-03-28T08:27:13.657Z,100.00
2023-03-28T08:28:13.579Z,100.00
2023-03-28T08:29:13.569Z,100.00
2023-03-28T08:30:13.598Z,100.00
2023-03-28T08:31:13.848Z,100.00
2023-03-28T08:32:13.061Z,100.00
2023-03-28T08:33:13.185Z,100.00
2023-03-28T08:34:13.332Z,100.00
2023-03-28T08:35:13.404Z,100.00
2023-03-28T08:36:13.342Z,100.00
2023-03-28T08:37:13.424Z,100.00
2023-03-28T08:38:13.881Z,100.00
2023-03-28T08:39:13.960Z,100.00
2023-03-28T08:40:12.858Z,100.00
2023-03-28T08:41:13.851Z,100.00
2023-03-28T08:42:13.834Z,100.00
2023-03-28T08:43:13.729Z,100.00
2023-03-28T08:44:13.785Z,100.00
2023-03-28T08:45:13.689Z,100.00
2023-03-28T08:46:13.655Z,100.00
2023-03-28T08:47:14.187Z,100.00
2023-03-28T08:48:13.307Z,100.00
2023-03-28T08:49:13.463Z,100.00
2023-03-28T08:50:13.630Z,100.00
2023-03-28T08:51:14.056Z,100.00
2023-03-28T08:52:12.983Z,100.00
2023-03-28T08:53:13.153Z,100.00
2023-03-28T08:54:13.073Z,100.00
2023-03-28T08:55:13.029Z,100.00
2023-03-28T08:56:13.009Z,100.00
2023-03-28T08:57:12.939Z,100.00
2023-03-28T08:58:12.769Z,100.00
2023-03-28T08:59:14.129Z,100.00
2023-03-28T09:00:12.953Z,100.00
2023-03-28T09:01:12.820Z,100.00
2023-03-28T09:02:13.846Z,100.00
2023-03-28T09:03:14.235Z,100.00
2023-03-28T09:04:13.326Z,100.00
2023-03-28T09:05:23.066Z,100.00
2023-03-28T09:06:13.120Z,100.00
2023-03-28T09:07:13.328Z,100.00
2023-03-28T09:08:13.304Z,100.00
2023-03-28T09:09:13.400Z,100.00
2023-03-28T09:10:13.372Z,98.40
2023-03-28T09:11:13.288Z,100.00
2023-03-28T09:12:13.268Z,98.60
2023-03-28T09:13:13.176Z,100.00
2023-03-28T09:14:13.320Z,100.00
2023-03-28T09:15:13.238Z,99.00
2023-03-28T09:16:13.302Z,98.60
2023-03-28T09:17:13.455Z,100.00
2023-03-28T09:18:13.746Z,100.00
2023-03-28T09:19:14.426Z,100.00
2023-03-28T09:20:13.347Z,96.40
2023-03-28T09:21:13.471Z,98.30
2023-03-28T09:22:16.042Z,100.00
2023-03-28T09:23:13.501Z,99.70
2023-03-28T09:24:13.416Z,100.00
2023-03-28T09:25:13.759Z,100.00
2023-03-28T09:26:13.764Z,100.00
2023-03-28T09:27:13.867Z,89.40
2023-03-28T09:28:13.774Z,88.50
2023-03-28T09:29:14.082Z,84.10
2023-03-28T09:30:13.175Z,81.50
2023-03-28T09:31:13.613Z,85.00
2023-03-28T09:32:13.830Z,82.30
2023-03-28T09:33:13.839Z,80.00
2023-03-28T09:34:13.883Z,78.30
2023-03-28T09:35:12.792Z,80.80
2023-03-28T09:36:13.883Z,80.10
2023-03-28T09:37:13.239Z,83.10
2023-03-28T09:38:13.164Z,86.70
2023-03-28T09:39:13.224Z,84.70
2023-03-28T09:40:13.277Z,86.00
2023-03-28T09:41:13.270Z,83.80
2023-03-28T09:42:13.196Z,80.60
2023-03-28T09:43:13.141Z,79.80
2023-03-28T09:44:13.090Z,77.40
2023-03-28T09:45:12.947Z,74.20
2023-03-28T09:46:12.842Z,75.90
2023-03-28T09:47:13.758Z,79.60
2023-03-28T09:48:14.150Z,84.30
2023-03-28T09:49:13.317Z,86.40
2023-03-28T09:50:13.521Z,82.70
2023-03-28T09:51:13.543Z,82.40
2023-03-28T09:52:13.440Z,85.90
2023-03-28T09:53:13.328Z,81.00
2023-03-28T09:54:13.235Z,78.70
2023-03-28T09:55:13.716Z,78.80
2023-03-28T09:56:13.760Z,75.40
2023-03-28T09:57:13.910Z,73.20
2023-03-28T09:58:13.126Z,74.90
2023-03-28T09:59:13.105Z,73.90
2023-03-28T10:00:12.932Z,71.30
2023-03-28T10:01:12.898Z,74.80
2023-03-28T10:02:12.969Z,76.60
2023-03-28T10:03:13.251Z,78.20
2023-03-28T10:04:13.364Z,79.20
2023-03-28T10:05:13.550Z,78.90
2023-03-28T10:06:13.460Z,77.30
2023-03-28T10:07:13.433Z,76.50
2023-03-28T10:08:13.470Z,72.60
2023-03-28T10:09:13.745Z,73.90
2023-03-28T10:10:13.797Z,71.50
2023-03-28T10:11:13.710Z,74.50
2023-03-28T10:12:13.514Z,80.40
2023-03-28T10:13:14.037Z,81.50
2023-03-28T10:14:12.952Z,84.30
2023-03-28T10:15:12.785Z,84.40
2023-03-28T10:16:13.751Z,84.40
2023-03-28T10:17:13.962Z,80.80
2023-03-28T10:18:13.231Z,79.20
2023-03-28T10:19:13.247Z,75.90
2023-03-28T10:20:13.292Z,77.00
2023-03-28T10:21:13.343Z,80.40
2023-03-28T10:22:13.648Z,79.80
2023-03-28T10:23:13.688Z,75.00
2023-03-28T10:24:13.721Z,70.60
2023-03-28T10:25:13.655Z,72.60
2023-03-28T10:26:13.781Z,70.60
2023-03-28T10:27:13.814Z,69.30
2023-03-28T10:28:14.155Z,62.10
2023-03-28T10:29:13.193Z,57.20
2023-03-28T10:30:13.352Z,59.70
2023-03-28T10:31:13.567Z,59.60
2023-03-28T10:32:13.604Z,62.00
2023-03-28T10:33:13.665Z,62.00
2023-03-28T10:34:13.709Z,62.00
2023-03-28T10:35:13.771Z,60.10
2023-03-28T10:36:13.941Z,62.60
2023-03-28T10:37:12.798Z,62.00
2023-03-28T10:38:13.805Z,62.60
2023-03-28T10:39:13.766Z,57.10
2023-03-28T10:40:13.895Z,60.00
2023-03-28T10:41:12.794Z,58.70
2023-03-28T10:42:13.773Z,57.10
2023-03-28T10:43:13.817Z,56.90
2023-03-28T10:44:14.866Z,56.90
2023-03-28T10:45:13.784Z,59.10
2023-03-28T10:46:14.069Z,61.10
2023-03-28T10:47:14.286Z,63.00
2023-03-28T10:48:13.206Z,62.20
2023-03-28T10:49:13.199Z,61.60
2023-03-28T10:50:13.250Z,64.00
2023-03-28T10:51:13.212Z,65.40
2023-03-28T10:52:13.096Z,62.50
2023-03-28T10:53:13.315Z,60.90
2023-03-28T10:54:13.272Z,60.10
2023-03-28T10:55:13.209Z,59.60
2023-03-28T10:56:13.297Z,59.70
2023-03-28T10:57:13.863Z,58.00
2023-03-28T10:58:12.995Z,59.30
2023-03-28T10:59:13.012Z,59.80
2023-03-28T11:00:13.043Z,57.10
2023-03-28T11:01:13.243Z,56.00
2023-03-28T11:02:13.107Z,55.70
2023-03-28T11:03:13.052Z,57.00
2023-03-28T11:04:13.084Z,55.70
2023-03-28T11:05:13.334Z,54.30
2023-03-28T11:06:13.240Z,54.20
2023-03-28T11:07:13.909Z,54.70
2023-03-28T11:08:13.304Z,56.20
2023-03-28T11:09:13.212Z,54.60
2023-03-28T11:10:13.105Z,51.70
2023-03-28T11:11:13.320Z,51.50
2023-03-28T11:12:23.012Z,51.10
2023-03-28T11:13:13.084Z,50.90
2023-03-28T11:14:13.021Z,50.90
2023-03-28T11:15:13.146Z,51.30
2023-03-28T11:16:13.246Z,50.70
2023-03-28T11:17:13.380Z,48.20
2023-03-28T11:18:13.368Z,50.10
2023-03-28T11:19:13.143Z,49.80
2023-03-28T11:20:13.321Z,49.50
2023-03-28T11:21:14.902Z,48.90
2023-03-28T11:22:12.761Z,47.60
2023-03-28T11:23:13.909Z,48.50
2023-03-28T11:24:12.950Z,46.60
2023-03-28T11:25:12.856Z,48.50
2023-03-28T11:26:13.844Z,47.40
2023-03-28T11:27:16.394Z,46.10
2023-03-28T11:28:15.010Z,48.30
2023-03-28T11:29:13.233Z,47.80
2023-03-28T11:30:13.222Z,46.80
2023-03-28T11:31:13.161Z,45.80
2023-03-28T11:32:13.056Z,45.50
2023-03-28T11:33:12.926Z,46.00
2023-03-28T11:34:13.118Z,46.50
2023-03-28T11:35:13.265Z,44.90
2023-03-28T11:36:13.495Z,44.90
2023-03-28T11:37:13.459Z,44.90
2023-03-28T11:38:13.502Z,44.10
2023-03-28T11:39:13.390Z,45.90
2023-03-28T11:40:13.558Z,46.10
2023-03-28T11:41:13.504Z,46.60
2023-03-28T11:42:13.416Z,44.80
2023-03-28T11:43:13.330Z,45.40
2023-03-28T11:44:13.338Z,46.50
2023-03-28T11:45:13.381Z,46.00
2023-03-28T11:46:13.606Z,46.00
2023-03-28T11:47:13.718Z,45.00
2023-03-28T11:48:13.747Z,45.10
2023-03-28T11:49:13.671Z,45.30
2023-03-28T11:50:13.620Z,44.60
2023-03-28T11:51:13.559Z,44.50
2023-03-28T11:52:13.566Z,44.50
2023-03-28T11:53:13.455Z,43.60
2023-03-28T11:54:13.383Z,44.00
2023-03-28T11:55:15.035Z,43.60
2023-03-28T11:56:13.571Z,43.40
2023-03-28T11:57:13.751Z,41.90
2023-03-28T11:58:13.823Z,45.50
2023-03-28T11:59:13.649Z,45.90
2023-03-28T12:00:31.860Z,43.80
2023-03-28T12:01:13.340Z,42.50
2023-03-28T12:02:13.806Z,43.50
2023-03-28T12:03:14.073Z,41.90
2023-03-28T12:04:13.363Z,41.80
2023-03-28T12:05:13.639Z,40.80
2023-03-28T12:06:13.930Z,41.60
2023-03-28T12:07:12.894Z,42.50
2023-03-28T12:08:12.943Z,40.90
2023-03-28T12:09:12.848Z,38.60
2023-03-28T12:10:13.769Z,39.30
2023-03-28T12:11:13.829Z,41.00
2023-03-28T12:12:14.163Z,42.10
2023-03-28T12:13:13.444Z,41.70
2023-03-28T12:14:13.620Z,43.60
2023-03-28T12:15:13.777Z,41.00
2023-03-28T12:16:13.010Z,40.20
2023-03-28T12:17:13.807Z,41.40
2023-03-28T12:18:13.829Z,43.70
2023-03-28T12:19:13.936Z,43.50
2023-03-28T12:20:12.753Z,43.80
2023-03-28T12:21:13.637Z,45.30
2023-03-28T12:22:13.686Z,44.80
2023-03-28T12:23:13.619Z,43.40
2023-03-28T12:24:13.484Z,44.40
2023-03-28T12:25:13.597Z,43.70
2023-03-28T12:26:13.496Z,41.50
2023-03-28T12:27:13.714Z,39.90
2023-03-28T12:28:14.036Z,41.30
2023-03-28T12:29:13.032Z,41.90
2023-03-28T12:30:13.369Z,41.70
2023-03-28T12:31:13.483Z,41.70
2023-03-28T12:32:13.381Z,45.30
2023-03-28T12:33:13.771Z,45.10
2023-03-28T12:34:13.638Z,42.90